Time;durP1;ratioP1;P1;durP2;ratioP2;P2;SDS_P1;SDS_P2;PMS_P1;PMS_P2;Temp;Humidity;BMP_temperature;BMP_pressure;BME280_temperature;BME280_humidity;BME280_pressure;Samples;Min_cycle;Max_cycle;Signal;HPM_P1;HPM_P2
2022/10/18 00:01:01;;;;;;;3.60;2.45;;;;;;;14.51;100.00;102302.00;5002183;28;20120;-79
2022/10/18 00:03:26;;;;;;;5.43;2.70;;;;;;;14.50;100.00;102301.16;5002471;28;20140;-79
2022/10/18 00:05:52;;;;;;;6.10;2.33;;;;;;;14.51;100.00;102307.22;4986489;28;20056;-79
2022/10/18 00:08:18;;;;;;;4.40;2.58;;;;;;;14.52;100.00;102306.25;5009206;23;20494;-78
2022/10/18 00:10:45;;;;;;;6.55;2.40;;;;;;;14.52;100.00;102298.41;5005820;28;20038;-78
2022/10/18 00:13:10;;;;;;;4.40;2.45;;;;;;;14.51;100.00;102291.56;4989778;28;20484;-79
2022/10/18 00:15:36;;;;;;;4.80;2.47;;;;;;;14.52;100.00;102285.34;5021631;28;20037;-79
2022/10/18 00:18:02;;;;;;;4.40;2.60;;;;;;;14.49;100.00;102285.66;5018683;28;20515;-79
2022/10/18 00:20:28;;;;;;;5.38;2.70;;;;;;;14.47;100.00;102287.59;5012882;23;20099;-81
2022/10/18 00:22:53;;;;;;;5.25;2.28;;;;;;;14.46;100.00;102289.38;5001610;28;20045;-78
2022/10/18 00:25:19;;;;;;;4.10;2.40;;;;;;;14.46;100.00;102283.34;5001850;28;20338;-79
2022/10/18 00:27:45;;;;;;;6.40;2.40;;;;;;;14.47;100.00;102279.78;5018349;28;20029;-78
2022/10/18 00:30:12;;;;;;;3.38;2.25;;;;;;;14.46;100.00;102273.72;5002144;28;20120;-80
2022/10/18 00:32:39;;;;;;;6.68;3.50;;;;;;;14.46;100.00;102281.53;4982249;28;20059;-78
2022/10/18 00:35:06;;;;;;;5.15;2.15;;;;;;;14.47;100.00;102279.78;4997593;28;20034;-80
2022/10/18 00:37:33;;;;;;;3.47;2.13;;;;;;;14.45;100.00;102272.09;4985830;28;20517;-78
2022/10/18 00:39:59;;;;;;;7.15;2.70;;;;;;;14.45;100.00;102279.91;5004132;28;20088;-78
2022/10/18 00:42:29;;;;;;;5.28;2.33;;;;;;;14.44;100.00;102282.66;4983307;28;20099;-79
2022/10/18 00:45:03;;;;;;;3.90;2.90;;;;;;;14.43;100.00;102281.84;5004578;28;20517;-79
2022/10/18 00:47:29;;;;;;;6.57;3.08;;;;;;;14.44;100.00;102280.06;5004034;28;20040;-79
2022/10/18 00:49:59;;;;;;;6.05;3.00;;;;;;;14.43;100.00;102270.56;5004589;28;20029;-78
2022/10/18 00:52:31;;;;;;;6.63;3.17;;;;;;;14.43;100.00;102278.41;4986553;28;20089;-80
2022/10/18 00:54:57;;;;;;;4.40;2.60;;;;;;;14.40;100.00;102269.91;5007812;28;20411;-79
2022/10/18 00:57:24;;;;;;;8.75;3.20;;;;;;;14.39;100.00;102267.44;5007443;28;20049;-79
2022/10/18 00:59:50;;;;;;;6.28;3.40;;;;;;;14.38;100.00;102271.84;5002573;28;20158;-79
2022/10/18 01:02:17;;;;;;;4.97;3.45;;;;;;;14.39;100.00;102272.66;4999510;28;20034;-78
2022/10/18 01:04:46;;;;;;;5.55;3.35;;;;;;;14.38;100.00;102274.44;5005980;28;20032;-79
2022/10/18 01:07:24;;;;;;;6.55;2.55;;;;;;;14.38;100.00;102271.84;5001521;28;20026;-81
2022/10/18 01:10:12;;;;;;;6.43;3.10;;;;;;;14.37;100.00;102278.03;4989548;28;20034;-78
2022/10/18 01:12:59;;;;;;;9.60;4.22;;;;;;;14.39;100.00;102270.03;5004848;28;20036;-79
2022/10/18 01:15:30;;;;;;;5.72;3.58;;;;;;;14.38;100.00;102261.41;4992054;28;20412;-79
2022/10/18 01:18:17;;;;;;;6.03;3.58;;;;;;;14.35;100.00;102264.31;4989917;28;20445;-79
2022/10/18 01:21:10;;;;;;;6.55;3.42;;;;;;;14.35;100.00;102271.28;5001038;28;20260;-78
2022/10/18 01:23:43;;;;;;;5.63;3.67;;;;;;;14.35;100.00;102273.91;5018651;28;20058;-79
2022/10/18 01:26:20;;;;;;;7.93;3.30;;;;;;;14.36;100.00;102270.34;4990040;28;20044;-79
2022/10/18 01:29:09;;;;;;;6.53;3.60;;;;;;;14.36;100.00;102270.34;5004110;28;20037;-79
2022/10/18 01:31:59;;;;;;;5.68;3.70;;;;;;;14.34;100.00;102269.66;4998502;28;20054;-79
2022/10/18 01:34:30;;;;;;;6.32;3.25;;;;;;;14.36;100.00;102275.56;4989859;28;20038;-79
2022/10/18 01:36:58;;;;;;;8.40;3.47;;;;;;;14.35;100.00;102277.34;5000418;28;20026;-79
2022/10/18 01:39:28;;;;;;;6.78;3.10;;;;;;;14.37;100.00;102280.66;5001279;28;20046;-79
2022/10/18 01:41:57;;;;;;;9.40;4.22;;;;;;;14.36;100.00;102275.56;5006163;28;20041;-78
2022/10/18 01:44:25;;;;;;;5.68;3.45;;;;;;;14.34;100.00;102274.88;4988801;28;20493;-79
2022/10/18 01:46:53;;;;;;;8.18;4.63;;;;;;;14.33;100.00;102268.00;5003175;28;20288;-80
2022/10/18 01:49:19;;;;;;;5.63;3.38;;;;;;;14.35;100.00;102271.28;5003109;28;20040;-80
2022/10/18 01:51:45;;;;;;;8.50;4.18;;;;;;;14.35;100.00;102266.06;5020441;28;20128;-79
2022/10/18 01:54:14;;;;;;;4.68;3.40;;;;;;;14.35;100.00;102276.50;5004208;28;20026;-80
2022/10/18 01:56:52;;;;;;;7.05;4.13;;;;;;;14.36;100.00;102272.94;4992496;28;20042;-79
2022/10/18 01:59:33;;;;;;;9.38;3.72;;;;;;;14.35;100.00;102272.13;5003463;28;20112;-79
2022/10/18 02:01:58;;;;;;;8.18;3.58;;;;;;;14.33;100.00;102268.81;5008735;28;20033;-80
2022/10/18 02:04:50;;;;;;;6.53;3.50;;;;;;;14.34;100.00;102267.06;5005725;28;20046;-80
2022/10/18 02:07:42;;;;;;;6.80;3.50;;;;;;;14.33;100.00;102263.59;4987304;28;20037;-80
2022/10/18 02:10:10;;;;;;;5.38;3.47;;;;;;;14.35;100.00;102272.13;4999492;28;20068;-78
2022/10/18 02:12:40;;;;;;;8.60;3.80;;;;;;;14.35;100.00;102269.53;4988580;28;20543;-79
2022/10/18 02:15:08;;;;;;;6.70;3.15;;;;;;;14.36;100.00;102267.72;5004209;28;20088;-80
2022/10/18 02:17:34;;;;;;;6.95;3.45;;;;;;;14.35;100.00;102266.06;4991938;28;20037;-80
2022/10/18 02:20:05;;;;;;;5.07;3.35;;;;;;;14.36;100.00;102268.56;5006848;28;20030;-78
2022/10/18 02:22:32;;;;;;;5.53;3.58;;;;;;;14.36;100.00;102268.56;5004543;28;20046;-79
2022/10/18 02:25:02;;;;;;;7.15;3.42;;;;;;;14.36;100.00;102263.31;5007341;28;20125;-79
2022/10/18 02:27:28;;;;;;;5.85;3.30;;;;;;;14.37;100.00;102272.81;5004160;28;20038;-79
2022/10/18 02:29:54;;;;;;;6.13;3.45;;;;;;;14.39;100.00;102277.88;5005195;28;20037;-79
2022/10/18 02:32:40;;;;;;;5.85;3.70;;;;;;;14.38;100.00;102276.25;5001099;28;20033;-78
2022/10/18 02:35:12;;;;;;;5.82;3.67;;;;;;;14.37;100.00;102269.34;5000545;28;20034;-79
2022/10/18 02:37:39;;;;;;;7.38;3.80;;;;;;;14.37;100.00;102277.19;4986121;28;20298;-78
2022/10/18 02:40:08;;;;;;;5.97;3.00;;;;;;;14.38;100.00;102277.03;4987678;28;20053;-79
2022/10/18 02:42:43;;;;;;;8.50;3.75;;;;;;;14.38;100.00;102271.84;5001564;28;20073;-78
2022/10/18 02:45:10;;;;;;;6.13;3.47;;;;;;;14.38;100.00;102271.84;5000305;28;20034;-79
2022/10/18 02:47:36;;;;;;;7.78;3.28;;;;;;;14.38;100.00;102274.44;4999547;28;20102;-78
2022/10/18 02:50:01;;;;;;;6.93;3.95;;;;;;;14.38;100.00;102274.44;4989361;28;20650;-78
2022/10/18 02:52:27;;;;;;;6.18;3.80;;;;;;;14.38;100.00;102271.84;4999733;28;20046;-78
2022/10/18 02:54:52;;;;;;;8.57;4.50;;;;;;;14.38;100.00;102282.28;5000445;28;20466;-78
2022/10/18 02:57:18;;;;;;;8.70;4.60;;;;;;;14.37;100.00;102270.22;5000618;28;20034;-78
2022/10/18 02:59:44;;;;;;;6.85;4.72;;;;;;;14.38;100.00;102271.00;5001321;28;20030;-78
2022/10/18 03:02:09;;;;;;;9.57;4.68;;;;;;;14.38;100.00;102279.66;5000858;28;20038;-78
2022/10/18 03:04:35;;;;;;;7.20;4.38;;;;;;;14.38;100.00;102277.03;4999744;28;20034;-78
2022/10/18 03:07:00;;;;;;;11.40;4.55;;;;;;;14.39;100.00;102275.25;5001322;28;20045;-79
2022/10/18 03:09:26;;;;;;;8.35;5.03;;;;;;;14.38;100.00;102282.28;4980188;28;20057;-77
2022/10/18 03:11:52;;;;;;;12.57;5.95;;;;;;;14.39;100.00;102277.88;5002209;28;20116;-78
2022/10/18 03:14:17;;;;;;;10.77;5.28;;;;;;;14.39;100.00;102273.50;4996507;28;20030;-77
2022/10/18 03:16:43;;;;;;;12.43;6.22;;;;;;;14.39;100.00;102270.88;5000602;28;20597;-77
2022/10/18 03:19:09;;;;;;;12.40;5.97;;;;;;;14.39;100.00;102276.09;4998270;28;20038;-78
2022/10/18 03:21:34;;;;;;;10.57;5.68;;;;;;;14.38;100.00;102274.44;4983646;28;20042;-77
2022/10/18 03:24:01;;;;;;;11.40;6.43;;;;;;;14.39;100.00;102273.50;4997460;28;20069;-77
2022/10/18 03:26:26;;;;;;;16.45;6.50;;;;;;;14.40;100.00;102271.69;4998359;28;20037;-77
2022/10/18 03:28:53;;;;;;;12.38;6.65;;;;;;;14.41;100.00;102276.78;4996303;28;20396;-78
2022/10/18 03:31:19;;;;;;;11.98;6.05;;;;;;;14.38;100.00;102269.22;4994278;28;20030;-77
2022/10/18 03:33:45;;;;;;;11.98;6.00;;;;;;;14.37;100.00;102282.41;5000382;28;20450;-78
2022/10/18 03:36:11;;;;;;;10.10;6.03;;;;;;;14.34;100.00;102278.31;4981892;28;20042;-78
2022/10/18 03:38:36;;;;;;;9.77;5.70;;;;;;;14.34;100.00;102280.09;4998812;28;20026;-78
2022/10/18 03:41:02;;;;;;;10.35;6.25;;;;;;;14.35;100.00;102286.94;4997555;28;20499;-78
2022/10/18 03:43:28;;;;;;;12.45;5.65;;;;;;;14.34;100.00;102285.31;5000178;28;20105;-78
2022/10/18 03:45:54;;;;;;;16.73;6.22;;;;;;;14.33;100.00;102281.88;4997011;28;20062;-78
2022/10/18 03:48:20;;;;;;;9.70;6.10;;;;;;;14.34;100.00;102282.72;5002011;28;20046;-78
2022/10/18 03:50:45;;;;;;;12.35;6.00;;;;;;;14.35;100.00;102284.34;5000023;28;20145;-77
2022/10/18 03:53:11;;;;;;;11.15;6.47;;;;;;;14.35;100.00;102292.16;5000879;28;20038;-77
2022/10/18 03:55:37;;;;;;;9.80;5.75;;;;;;;14.34;100.00;102285.31;4995033;28;20133;-78
2022/10/18 03:58:03;;;;;;;8.88;5.38;;;;;;;14.36;100.00;102288.59;4996358;28;20041;-78
2022/10/18 04:00:29;;;;;;;10.15;5.97;;;;;;;14.35;100.00;102286.94;4996738;28;20526;-78
2022/10/18 04:02:55;;;;;;;13.95;6.22;;;;;;;14.37;100.00;102292.84;4997622;28;20125;-79
2022/10/18 04:05:22;;;;;;;10.18;6.05;;;;;;;14.36;100.00;102289.41;4996969;28;20038;-78
2022/10/18 04:07:49;;;;;;;9.82;5.80;;;;;;;14.36;100.00;102284.19;4984759;28;20033;-78
2022/10/18 04:10:14;;;;;;;10.13;5.80;;;;;;;14.38;100.00;102286.69;4982422;28;20122;-78
2022/10/18 04:12:40;;;;;;;10.68;6.00;;;;;;;14.37;100.00;102290.22;4997789;28;20152;-78
2022/10/18 04:15:06;;;;;;;9.02;5.15;;;;;;;14.37;100.00;102298.91;4983002;28;20027;-78
2022/10/18 04:17:32;;;;;;;11.63;6.10;;;;;;;14.39;100.00;102298.75;5001982;28;20034;-78
2022/10/18 04:19:57;;;;;;;11.80;6.50;;;;;;;14.39;100.00;102298.75;4984665;28;20460;-78
2022/10/18 04:22:23;;;;;;;14.95;7.13;;;;;;;14.40;100.00;102306.44;4995832;28;20038;-78
2022/10/18 04:24:49;;;;;;;12.75;5.28;;;;;;;14.38;100.00;102300.53;5003086;28;20041;-78
2022/10/18 04:27:14;;;;;;;14.40;6.03;;;;;;;14.38;100.00;102307.56;4998507;28;20022;-78
2022/10/18 04:29:40;;;;;;;10.30;6.00;;;;;;;14.37;100.00;102301.53;5002924;28;20061;-78
2022/10/18 04:32:05;;;;;;;11.25;5.53;;;;;;;14.37;100.00;102303.28;4987263;28;20121;-78
2022/10/18 04:34:31;;;;;;;11.88;7.20;;;;;;;14.38;100.00;102303.16;4985703;28;20042;-78
2022/10/18 04:36:57;;;;;;;14.60;7.53;;;;;;;14.38;100.00;102307.56;5000838;28;20034;-78
2022/10/18 04:39:22;;;;;;;14.48;7.93;;;;;;;14.39;100.00;102306.56;5001544;28;20169;-77
2022/10/18 04:41:48;;;;;;;20.20;10.38;;;;;;;14.46;100.00;102306.81;5001692;28;20485;-78
2022/10/18 04:44:13;;;;;;;21.58;10.18;;;;;;;14.42;100.00;102298.47;5000225;28;20037;-78
2022/10/18 04:46:39;;;;;;;19.27;9.85;;;;;;;14.40;100.00;102306.44;5014805;28;20477;-78
2022/10/18 04:49:05;;;;;;;23.58;11.38;;;;;;;14.40;100.00;102311.66;4984723;28;20041;-78
2022/10/18 04:51:30;;;;;;;23.90;11.95;;;;;;;14.41;100.00;102305.47;5002653;28;20412;-78
2022/10/18 04:53:56;;;;;;;25.25;11.77;;;;;;;14.39;100.00;102317.84;4999890;28;20030;-78
2022/10/18 04:56:22;;;;;;;20.73;10.70;;;;;;;14.39;100.00;102309.19;5001145;28;20038;-77
2022/10/18 04:58:47;;;;;;;16.58;9.80;;;;;;;14.38;100.00;102297.94;5005310;28;20042;-78
2022/10/18 05:01:13;;;;;;;20.42;11.18;;;;;;;14.38;100.00;102303.16;5001035;28;20084;-78
2022/10/18 05:03:39;;;;;;;20.25;10.88;;;;;;;14.38;100.00;102294.50;4987635;28;20026;-77
2022/10/18 05:06:05;;;;;;;20.60;11.27;;;;;;;14.36;100.00;102299.84;4985983;28;20492;-78
2022/10/18 05:08:32;;;;;;;21.83;10.98;;;;;;;14.37;100.00;102311.97;5000647;28;20365;-77
2022/10/18 05:10:58;;;;;;;24.58;12.98;;;;;;;14.38;100.00;102304.94;5001003;28;20065;-78
2022/10/18 05:13:24;;;;;;;22.25;11.75;;;;;;;14.36;100.00;102299.84;5001003;28;20049;-78
2022/10/18 05:15:50;;;;;;;19.25;11.10;;;;;;;14.35;100.00;102306.06;5002294;28;20400;-78
2022/10/18 05:18:16;;;;;;;19.60;10.80;;;;;;;14.34;100.00;102307.00;4998524;28;20038;-78
2022/10/18 05:20:42;;;;;;;19.02;11.13;;;;;;;14.35;100.00;102307.81;4985167;28;20034;-78
2022/10/18 05:23:10;;;;;;;16.83;10.32;;;;;;;14.32;100.00;102300.31;4991265;28;20408;-78
2022/10/18 05:25:40;;;;;;;24.92;12.23;;;;;;;14.32;100.00;102306.34;5003020;28;20037;-78
2022/10/18 05:28:06;;;;;;;21.70;11.52;;;;;;;14.34;100.00;102314.84;4983331;28;20033;-78
2022/10/18 05:30:32;;;;;;;22.48;12.07;;;;;;;14.31;100.00;102309.91;5017904;28;20085;-78
2022/10/18 05:32:57;;;;;;;21.55;11.57;;;;;;;14.28;100.00;102311.97;4984334;28;20034;-78
2022/10/18 05:35:23;;;;;;;21.80;12.68;;;;;;;14.28;100.00;102318.03;5001274;28;20495;-78
2022/10/18 05:37:48;;;;;;;19.10;10.77;;;;;;;14.27;100.00;102316.38;4999322;28;20069;-77
2022/10/18 05:40:14;;;;;;;18.15;10.80;;;;;;;14.26;100.00;102313.91;4998793;28;20025;-78
2022/10/18 05:42:40;;;;;;;26.80;12.48;;;;;;;14.25;100.00;102305.25;5001811;28;20080;-78
2022/10/18 05:45:06;;;;;;;22.23;13.77;;;;;;;14.26;100.00;102309.53;4997797;28;20034;-78
2022/10/18 05:47:32;;;;;;;20.83;12.68;;;;;;;14.25;100.00;102309.66;4984505;28;20407;-78
2022/10/18 05:49:57;;;;;;;21.40;12.77;;;;;;;14.24;100.00;102308.00;4999084;28;20133;-78
2022/10/18 05:52:23;;;;;;;20.67;11.75;;;;;;;14.23;100.00;102309.81;4999885;28;20044;-77
2022/10/18 05:54:48;;;;;;;20.73;11.00;;;;;;;14.23;100.00;102304.59;5001146;28;20493;-78
2022/10/18 05:57:14;;;;;;;21.15;12.73;;;;;;;14.25;100.00;102307.06;5001194;28;20104;-78
2022/10/18 05:59:40;;;;;;;21.38;12.93;;;;;;;14.21;100.00;102315.16;5000971;28;20365;-78
2022/10/18 06:02:05;;;;;;;22.08;11.80;;;;;;;14.20;100.00;102310.09;5000451;28;20029;-77
2022/10/18 06:04:31;;;;;;;18.50;10.77;;;;;;;14.20;100.00;102318.75;5001288;28;20052;-78
2022/10/18 06:06:57;;;;;;;21.40;11.00;;;;;;;14.20;100.00;102321.34;5003697;28;20030;-78
2022/10/18 06:09:22;;;;;;;17.98;10.48;;;;;;;14.19;100.00;102322.31;4999847;28;20033;-78
2022/10/18 06:11:48;;;;;;;18.60;10.48;;;;;;;14.20;100.00;102325.72;5003424;28;20042;-78
2022/10/18 06:14:13;;;;;;;17.75;9.85;;;;;;;14.18;100.00;102332.88;4984635;28;20038;-78
2022/10/18 06:16:39;;;;;;;19.63;11.48;;;;;;;14.17;100.00;102332.06;5004258;28;20048;-78
2022/10/18 06:19:04;;;;;;;18.65;10.85;;;;;;;14.16;100.00;102334.81;5001328;28;20034;-78
2022/10/18 06:21:30;;;;;;;19.02;10.80;;;;;;;14.15;100.00;102338.41;4997833;23;173716;-90
2022/10/18 06:24:09;;;;;;;21.80;11.20;;;;;;;14.13;100.00;102346.38;4980942;28;20096;-90
2022/10/18 06:26:34;;;;;;;17.00;10.00;;;;;;;14.14;100.00;102348.00;4971930;28;20073;-90
2022/10/18 06:29:00;;;;;;;25.10;11.88;;;;;;;14.12;100.00;102349.91;4989191;28;20030;-90
2022/10/18 06:31:25;;;;;;;20.67;11.73;;;;;;;14.14;100.00;102355.00;4993676;28;20034;-90
2022/10/18 06:33:51;;;;;;;23.80;11.90;;;;;;;14.14;100.00;102348.00;4974776;28;20030;-90
2022/10/18 06:36:20;;;;;;;26.27;13.50;;;;;;;14.16;100.00;102358.28;4994376;28;20049;-90
2022/10/18 06:38:46;;;;;;;24.25;12.65;;;;;;;14.16;100.00;102361.72;4972975;28;20065;-90
2022/10/18 06:41:12;;;;;;;22.02;13.45;;;;;;;14.17;100.00;102358.16;4994085;28;20050;-90
2022/10/18 06:43:38;;;;;;;23.65;13.00;;;;;;;14.18;100.00;102359.81;4986298;28;20035;-90
2022/10/18 06:46:06;;;;;;;25.55;13.05;;;;;;;14.18;100.00;102362.41;4991829;28;20066;-90
2022/10/18 06:48:37;;;;;;;28.23;15.52;;;;;;;14.20;100.00;102360.50;5004987;28;20408;-90
2022/10/18 06:51:05;;;;;;;25.45;14.00;;;;;;;14.24;100.00;102368.00;4991233;28;20035;-90
2022/10/18 06:53:33;;;;;;;36.50;15.43;;;;;;;14.28;100.00;102377.19;4987948;28;20038;-90
2022/10/18 06:55:59;;;;;;;25.90;14.25;;;;;;;14.24;100.00;102371.47;4989624;28;20057;-89
2022/10/18 06:58:25;;;;;;;31.23;14.85;;;;;;;14.24;100.00;102373.22;4993210;28;20514;-91
2022/10/18 07:00:50;;;;;;;28.48;16.67;;;;;;;14.27;100.00;102388.63;4988010;28;20030;-90
2022/10/18 07:03:16;;;;;;;30.88;15.98;;;;;;;14.28;100.00;102390.25;4975267;28;20745;-90
2022/10/18 07:05:41;;;;;;;29.30;16.48;;;;;;;14.26;100.00;102394.78;4993603;28;20030;-90
2022/10/18 07:08:07;;;;;;;28.83;16.67;;;;;;;14.23;100.00;102392.47;4990763;28;20026;-90
2022/10/18 07:10:32;;;;;;;34.35;18.30;;;;;;;14.26;100.00;102398.22;4990442;28;20038;-90
2022/10/18 07:12:58;;;;;;;27.98;15.73;;;;;;;14.27;100.00;102401.66;4991778;28;20091;-90
2022/10/18 07:15:23;;;;;;;29.52;16.42;;;;;;;14.27;100.00;102397.25;4972539;28;20037;-89
2022/10/18 07:17:49;;;;;;;31.38;17.15;;;;;;;14.28;100.00;102396.31;5006240;28;20384;-90
2022/10/18 07:20:15;;;;;;;31.42;17.17;;;;;;;14.30;100.00;102401.38;4988980;28;20014;-90
2022/10/18 07:22:40;;;;;;;41.08;21.08;;;;;;;14.31;100.00;102401.22;4988813;28;20442;-90
2022/10/18 07:25:07;;;;;;;38.97;18.58;;;;;;;14.34;100.00;102400.13;4990914;28;20084;-90
2022/10/18 07:27:41;;;;;;;35.55;17.63;;;;;;;14.38;100.00;102401.50;4988097;28;20048;-90
2022/10/18 07:30:09;;;;;;;41.05;19.15;;;;;;;14.40;100.00;102410.00;4966833;28;20034;-90
2022/10/18 07:32:35;;;;;;;39.88;20.42;;;;;;;14.43;100.00;102419.31;4972529;28;20042;-90
2022/10/18 07:35:01;;;;;;;41.20;20.33;;;;;;;14.46;100.00;102425.06;4990204;28;20085;-90
2022/10/18 07:37:29;;;;;;;35.28;18.08;;;;;;;14.48;100.00;102430.16;4988388;28;20022;-90
2022/10/18 07:39:54;;;;;;;39.22;19.98;;;;;;;14.51;100.00;102432.50;4975807;28;20046;-89
2022/10/18 07:42:20;;;;;;;41.35;20.50;;;;;;;14.53;100.00;102436.59;4989476;28;20534;-90
2022/10/18 07:44:45;;;;;;;44.13;20.23;;;;;;;14.57;100.00;102439.78;4971932;28;20089;-90
2022/10/18 07:47:11;;;;;;;50.35;20.92;;;;;;;14.60;100.00;102432.50;4986505;28;20555;-90
2022/10/18 07:49:36;;;;;;;42.35;19.58;;;;;;;14.64;100.00;102448.69;4987413;28;20037;-90
2022/10/18 07:52:02;;;;;;;46.15;21.95;;;;;;;14.70;100.00;102442.09;4992323;28;20037;-90
2022/10/18 07:54:46;;;;;;;43.45;21.52;;;;;;;14.74;100.00;102438.22;4990605;28;20039;-90
2022/10/18 07:57:12;;;;;;;51.92;23.00;;;;;;;14.76;100.00;102444.09;5008195;28;20039;-89
2022/10/18 07:59:37;;;;;;;50.10;24.50;;;;;;;14.80;100.00;102450.69;4978887;28;20038;-90
2022/10/18 08:02:06;;;;;;;50.03;23.85;;;;;;;14.85;100.00;102456.31;5012428;28;20043;-90
2022/10/18 08:04:31;;;;;;;47.13;21.70;;;;;;;14.84;100.00;102452.03;4995946;28;20505;-89
2022/10/18 08:06:57;;;;;;;52.80;23.13;;;;;;;14.88;100.00;102460.41;4994849;28;20038;-89
2022/10/18 08:09:22;;;;;;;61.00;26.17;;;;;;;14.88;100.00;102469.09;4973932;28;20030;-89
2022/10/18 08:11:48;;;;;;;50.42;23.55;;;;;;;14.86;100.00;102468.41;4994400;28;20034;-91
2022/10/18 08:14:14;;;;;;;53.85;24.63;;;;;;;14.87;100.00;102474.44;5007856;28;20675;-90
2022/10/18 08:16:39;;;;;;;68.10;29.60;;;;;;;14.85;100.00;102474.59;4982056;28;20045;-89
2022/10/18 08:19:13;;;;;;;67.90;28.83;;;;;;;14.89;100.00;102469.91;4993613;28;20030;-89
2022/10/18 08:21:38;;;;;;;53.17;25.02;;;;;;;14.87;100.00;102474.44;4991981;28;20069;-89
2022/10/18 08:24:04;;;;;;;55.47;25.77;;;;;;;14.83;100.00;102473.91;4992182;28;20602;-89
2022/10/18 08:26:29;;;;;;;63.45;27.98;;;;;;;14.82;100.00;102477.47;4996231;28;20380;-89
2022/10/18 08:28:55;;;;;;;65.20;29.73;;;;;;;14.82;100.00;102463.59;4974541;28;20372;-90
2022/10/18 08:31:20;;;;;;;60.63;28.23;;;;;;;14.82;100.00;102467.03;4993036;28;20089;-89
2022/10/18 08:33:46;;;;;;;59.40;28.08;;;;;;;14.85;100.00;102473.78;4994751;28;20034;-89
2022/10/18 08:36:14;;;;;;;64.25;28.40;;;;;;;14.83;100.00;102484.34;4995083;28;20470;-90
2022/10/18 08:38:41;;;;;;;66.80;29.60;;;;;;;14.75;100.00;102487.69;4980859;28;20038;-88
2022/10/18 08:41:25;;;;;;;70.88;30.90;;;;;;;14.72;100.00;102489.75;5013637;28;20476;-89
2022/10/18 08:44:09;;;;;;;64.80;27.77;;;;;;;14.76;100.00;102485.88;4992992;28;20046;-90
2022/10/18 08:46:37;;;;;;;57.17;28.20;;;;;;;14.78;100.00;102494.41;4998476;28;20035;-90
2022/10/18 08:49:04;;;;;;;92.93;35.00;;;;;;;14.73;100.00;102494.84;4993413;28;20045;-89
2022/10/18 08:51:38;;;;;;;84.63;35.40;;;;;;;14.79;100.00;102493.44;5006241;28;20471;-89
2022/10/18 08:54:24;;;;;;;85.47;34.17;;;;;;;14.87;100.00;102495.34;4992504;28;20495;-88
2022/10/18 08:56:59;;;;;;;76.57;30.20;;;;;;;14.88;100.00;102491.75;4980989;28;20030;-89
2022/10/18 08:59:40;;;;;;;74.85;30.02;;;;;;;14.86;100.00;102484.09;4993892;28;20034;-90
2022/10/18 09:02:16;;;;;;;77.43;29.65;;;;;;;14.80;100.00;102479.41;4994153;28;20034;-89
2022/10/18 09:04:56;;;;;;;76.82;30.17;;;;;;;14.82;100.00;102482.69;4990577;28;20035;-88
2022/10/18 09:07:46;;;;;;;77.10;30.98;;;;;;;14.93;100.00;102489.53;4974495;28;20035;-90
2022/10/18 09:10:22;;;;;;;93.43;32.67;;;;;;;15.01;100.00;102492.25;4974417;28;20487;-90
2022/10/18 09:13:09;;;;;;;77.38;30.35;;;;;;;14.97;100.00;102480.44;4974885;28;20042;-91
2022/10/18 09:15:58;;;;;;;80.07;31.98;;;;;;;14.98;100.00;102485.53;4974736;28;20039;-89
2022/10/18 09:19:10;;;;;;;72.50;30.75;;;;;;;14.96;100.00;102495.28;4974491;28;20042;-90
2022/10/18 09:21:57;;;;;;;80.53;30.38;;;;;;;14.95;100.00;102488.41;4972999;28;20030;-89
2022/10/18 09:24:36;;;;;;;76.25;31.58;;;;;;;14.89;100.00;102494.22;4994189;28;20038;-90
2022/10/18 09:27:17;;;;;;;72.07;29.55;;;;;;;14.92;100.00;102508.81;4994297;28;20045;-90
2022/10/18 09:30:04;;;;;;;74.80;27.77;;;;;;;14.92;100.00;102516.63;4994310;28;20026;-88
2022/10/18 09:32:51;;;;;;;73.55;31.42;;;;;;;14.92;100.00;102514.84;4994518;28;20042;-88
2022/10/18 09:35:26;;;;;;;64.95;27.35;;;;;;;14.96;100.00;102521.41;4994335;28;20476;-89
2022/10/18 09:37:57;;;;;;;74.20;28.10;;;;;;;15.05;100.00;102524.13;4994998;28;20121;-89
2022/10/18 09:40:27;;;;;;;80.53;30.88;;;;;;;15.07;100.00;102525.66;4993736;28;20631;-88
2022/10/18 09:42:58;;;;;;;66.53;28.00;;;;;;;15.09;100.00;102510.66;4977604;28;20038;-88
2022/10/18 09:45:26;;;;;;;69.57;27.10;;;;;;;15.11;100.00;102516.56;5009906;28;20034;-89
2022/10/18 09:48:02;;;;;;;64.07;27.58;;;;;;;15.17;100.00;102521.19;4994080;28;20124;-90
2022/10/18 09:50:30;;;;;;;78.70;32.00;;;;;;;15.18;100.00;102517.63;4993759;28;20027;-90
2022/10/18 09:53:11;;;;;;;64.32;27.75;;;;;;;15.18;100.00;102522.84;4973712;28;20066;-89
2022/10/18 09:56:19;;;;;;;71.85;29.70;;;;;;;15.21;100.00;102519.13;4973984;28;20030;-88
2022/10/18 09:58:47;;;;;;;71.63;27.95;;;;;;;15.15;100.00;102517.09;4998398;28;20049;-89
2022/10/18 10:01:18;;;;;;;74.20;27.67;;;;;;;15.14;100.00;102528.50;5020042;28;20034;-90
2022/10/18 10:03:56;;;;;;;66.57;28.90;;;;;;;15.14;100.00;102533.72;5002559;28;20113;-91
2022/10/18 10:06:28;;;;;;;68.60;27.75;;;;;;;15.17;100.00;102536.88;4974595;28;20396;-90
2022/10/18 10:09:28;;;;;;;72.93;29.00;;;;;;;15.12;100.00;102535.66;4958812;28;20038;-90
2022/10/18 10:11:57;;;;;;;69.57;29.08;;;;;;;15.18;100.00;102530.69;4991832;28;20038;-90
2022/10/18 10:14:51;;;;;;;68.80;27.33;;;;;;;15.25;100.00;102536.16;4986879;28;20430;-89
2022/10/18 10:17:28;;;;;;;67.13;29.15;;;;;;;15.29;100.00;102534.88;5009506;28;20057;-88
2022/10/18 10:20:23;;;;;;;80.82;29.35;;;;;;;15.19;100.00;102523.66;4991822;28;20076;-90
2022/10/18 10:22:53;;;;;;;75.00;27.50;;;;;;;15.24;100.00;102528.44;4939076;28;20477;-90
2022/10/18 10:25:29;;;;;;;66.63;26.08;;;;;;;15.27;100.00;102526.38;4973985;28;20636;-91
2022/10/18 10:28:05;;;;;;;71.32;27.75;;;;;;;15.28;100.00;102530.63;4974405;28;20484;-90
2022/10/18 10:30:36;;;;;;;70.53;27.17;;;;;;;15.21;100.00;102526.94;4958013;28;20026;-92
2022/10/18 10:33:03;;;;;;;66.05;23.85;;;;;;;15.26;100.00;102529.16;4957979;28;20479;-90
2022/10/18 10:35:38;;;;;;;60.00;24.40;;;;;;;15.27;100.00;102526.38;4976961;28;20050;-90
2022/10/18 10:38:05;;;;;;;69.93;27.70;;;;;;;15.29;100.00;102537.50;4992684;28;20073;-89
2022/10/18 10:40:39;;;;;;;61.60;26.67;;;;;;;15.22;100.00;102526.00;4976052;28;20034;-92
2022/10/18 10:43:51;;;;;;;;;;;;;;;;;;;;;
2022/10/18 10:47:26;;;;;;;72.40;28.45;;;;;;;15.25;100.00;102525.69;4954994;29;20054;-91
2022/10/18 10:49:55;;;;;;;75.75;28.58;;;;;;;15.34;100.00;102531.84;4953483;29;20499;-91
2022/10/18 10:52:26;;;;;;;71.70;26.73;;;;;;;15.32;100.00;102524.16;4972441;28;20137;-89
2022/10/18 10:54:53;;;;;;;64.00;25.33;;;;;;;15.38;100.00;102526.16;4957197;28;20403;-93
2022/10/18 10:57:23;;;;;;;61.75;24.85;;;;;;;15.42;100.00;102523.28;4957065;28;20089;-91
2022/10/18 10:59:51;;;;;;;54.10;22.08;;;;;;;15.41;100.00;102530.31;4972771;28;20459;-91
2022/10/18 11:02:36;;;;;;;49.90;21.85;;;;;;;15.43;100.00;102528.38;4991320;28;20088;-89
2022/10/18 11:05:22;;;;;;;55.42;22.52;;;;;;;15.49;100.00;102530.38;4976216;28;20041;-91
2022/10/18 11:07:51;;;;;;;55.53;22.80;;;;;;;15.55;100.00;102528.97;4992506;28;20038;-89
2022/10/18 11:10:20;;;;;;;52.00;21.50;;;;;;;15.47;100.00;102523.66;4992342;28;20049;-90
2022/10/18 11:13:06;;;;;;;49.47;22.83;;;;;;;15.46;100.00;102532.47;5004625;28;20033;-91
2022/10/18 11:15:37;;;;;;;54.03;21.92;;;;;;;15.53;100.00;102533.53;5009074;28;20045;-91
2022/10/18 11:18:13;;;;;;;57.75;24.17;;;;;;;15.54;100.00;102522.94;4988790;28;20089;-89
2022/10/18 11:21:24;;;;;;;50.58;22.08;;;;;;;15.61;100.00;102535.41;4972472;28;20070;-89
2022/10/18 11:23:50;;;;;;;49.53;20.10;;;;;;;15.59;100.00;102527.72;4972574;28;20093;-90